Terminal Aerodrome Forecast
Issued by NWS Mobile, AL

Home | Current Version | Previous Version | Text Only | Print | Product List | Glossary On
Versions: 1 2 3 4 5 6 7 8 9 10 11 12 13 14 15 16 17 18 19 20 21 22 23 24 25
000
FTUS44 KMOB 200042 AAA
TAFMOB
TAF AMD
KMOB 200042Z 2001/2024 15006KT P6SM VCSH FEW016 BKN045 OVC080
     FM200300 18010KT 4SM BR BKN010
     FM200600 17006KT 1/2SM FG OVC004
     FM201500 22008KT 3SM BR OVC010
     FM201800 21008KT P6SM SCT020=

USA.gov is the U.S. government's official web portal to all federal, state and local government web resources and services.